Time;durP1;ratioP1;P1;durP2;ratioP2;P2;SDS_P1;SDS_P2;PMS_P1;PMS_P2;Temp;Humidity;BMP_temperature;BMP_pressure;BME280_temperature;BME280_humidity;BME280_pressure;Samples;Min_cycle;Max_cycle;Signal;HPM_P1;HPM_P2
2023/12/03 00:02:08;;;;;;;3.20;3.00;;;1.70;99.90;;;;;;5098014;28;20641;-79
2023/12/03 00:04:36;;;;;;;2.60;2.50;;;1.80;99.90;;;;;;5116456;28;20706;-78
2023/12/03 00:07:02;;;;;;;3.33;3.03;;;1.80;99.90;;;;;;5117720;28;20224;-79
2023/12/03 00:09:27;;;;;;;3.17;2.47;;;1.80;99.90;;;;;;5116037;28;20213;-79
2023/12/03 00:11:53;;;;;;;2.50;2.30;;;1.80;99.90;;;;;;5098556;28;20180;-80
2023/12/03 00:14:19;;;;;;;2.60;2.40;;;1.80;99.90;;;;;;5097640;28;20185;-79
2023/12/03 00:16:46;;;;;;;2.10;2.00;;;1.80;99.90;;;;;;5116456;28;20210;-79
2023/12/03 00:19:14;;;;;;;2.30;2.20;;;1.70;99.90;;;;;;5116208;28;20180;-81
2023/12/03 00:21:40;;;;;;;2.27;2.10;;;1.70;99.90;;;;;;5098257;28;20202;-81
2023/12/03 00:24:06;;;;;;;2.60;2.40;;;1.70;99.90;;;;;;5116081;28;20185;-81
2023/12/03 00:26:31;;;;;;;2.30;2.10;;;1.70;99.90;;;;;;5115133;28;20176;-79
2023/12/03 00:28:57;;;;;;;1.90;1.80;;;1.70;99.90;;;;;;5115420;28;20218;-80
2023/12/03 00:31:23;;;;;;;2.33;2.20;;;1.60;99.90;;;;;;5115593;28;20179;-80
2023/12/03 00:33:48;;;;;;;2.20;2.10;;;1.60;99.90;;;;;;5115730;28;20172;-78
2023/12/03 00:36:14;;;;;;;1.93;1.83;;;1.70;99.90;;;;;;5115203;28;20732;-79
2023/12/03 00:38:40;;;;;;;2.23;2.13;;;1.70;99.90;;;;;;5115334;28;20663;-79
2023/12/03 00:41:06;;;;;;;2.37;2.27;;;1.70;99.90;;;;;;5115860;28;20661;-78
2023/12/03 00:43:32;;;;;;;2.60;2.50;;;1.60;99.90;;;;;;5115940;28;20173;-78
2023/12/03 00:45:58;;;;;;;2.20;2.10;;;1.70;99.90;;;;;;5098909;28;20177;-78
2023/12/03 00:48:25;;;;;;;2.37;2.17;;;1.70;99.90;;;;;;5119696;28;20172;-77
2023/12/03 00:50:51;;;;;;;2.03;1.93;;;1.60;99.90;;;;;;5116769;28;20223;-78
2023/12/03 00:53:16;;;;;;;2.10;2.00;;;1.60;99.90;;;;;;5117031;28;20558;-77
2023/12/03 00:55:42;;;;;;;2.50;2.30;;;1.60;99.90;;;;;;5126187;28;20167;-80
2023/12/03 00:58:08;;;;;;;2.17;2.07;;;1.50;99.90;;;;;;5127408;28;20173;-79
2023/12/03 01:00:34;;;;;;;3.40;2.00;;;1.50;99.90;;;;;;5115959;28;20223;-79
2023/12/03 01:03:00;;;;;;;2.00;1.90;;;1.50;99.90;;;;;;5117536;28;20172;-79
2023/12/03 01:05:25;;;;;;;2.10;2.00;;;1.60;99.90;;;;;;5126251;28;20270;-79
2023/12/03 01:07:51;;;;;;;1.87;1.77;;;1.50;99.90;;;;;;5115351;28;20603;-79
2023/12/03 01:10:17;;;;;;;1.90;1.80;;;1.40;99.90;;;;;;5115243;28;20687;-79
2023/12/03 01:12:42;;;;;;;1.80;1.70;;;1.50;99.90;;;;;;5115615;28;20173;-79
2023/12/03 01:15:08;;;;;;;2.43;2.23;;;1.40;99.90;;;;;;5116657;28;20176;-80
2023/12/03 01:17:34;;;;;;;2.23;2.03;;;1.40;99.90;;;;;;5105151;28;20175;-79
2023/12/03 01:20:00;;;;;;;1.80;1.70;;;1.30;99.90;;;;;;5119712;28;20212;-79
2023/12/03 01:22:26;;;;;;;2.10;2.00;;;1.30;99.90;;;;;;5117644;28;20182;-78
2023/12/03 01:24:51;;;;;;;1.60;1.60;;;1.30;99.90;;;;;;5116105;28;20188;-80
2023/12/03 01:27:17;;;;;;;1.80;1.70;;;1.30;99.90;;;;;;5116250;28;20187;-80
2023/12/03 01:29:43;;;;;;;2.03;1.93;;;1.30;99.90;;;;;;5114777;28;20208;-78
2023/12/03 01:32:09;;;;;;;2.23;2.10;;;1.20;99.90;;;;;;5095739;28;20191;-81
2023/12/03 01:34:34;;;;;;;2.00;1.90;;;1.30;99.90;;;;;;5114763;28;20192;-79
2023/12/03 01:37:00;;;;;;;2.10;2.00;;;1.20;99.90;;;;;;5114635;28;20212;-80
2023/12/03 01:39:26;;;;;;;2.00;1.90;;;1.20;99.90;;;;;;5114643;28;20229;-78
2023/12/03 01:41:55;;;;;;;2.00;1.90;;;1.20;99.90;;;;;;5114512;28;20617;-79
2023/12/03 01:44:21;;;;;;;2.07;1.97;;;1.20;99.90;;;;;;5114596;28;20207;-80
2023/12/03 01:46:49;;;;;;;2.00;1.90;;;1.20;99.90;;;;;;5114847;28;20167;-81
2023/12/03 01:49:19;;;;;;;1.80;1.70;;;1.20;99.90;;;;;;5114357;28;20212;-80
2023/12/03 01:51:46;;;;;;;1.60;1.50;;;1.20;99.90;;;;;;5114553;28;20221;-76
2023/12/03 01:54:12;;;;;;;2.00;1.90;;;1.10;99.90;;;;;;5114225;28;20168;-80
2023/12/03 01:56:38;;;;;;;1.87;1.77;;;1.00;99.90;;;;;;5114228;28;20264;-78
2023/12/03 01:59:04;;;;;;;2.00;1.90;;;1.00;99.90;;;;;;5114489;28;20202;-79
2023/12/03 02:01:30;;;;;;;1.90;1.80;;;1.00;99.90;;;;;;5101627;28;20179;-79
2023/12/03 02:03:56;;;;;;;2.10;1.90;;;1.00;99.90;;;;;;5131083;28;20264;-77
2023/12/03 02:06:22;;;;;;;2.27;1.87;;;1.00;99.90;;;;;;5125657;28;20219;-80
2023/12/03 02:08:47;;;;;;;2.17;2.07;;;0.90;99.90;;;;;;5114202;28;20164;-80
2023/12/03 02:11:14;;;;;;;1.90;1.80;;;0.90;99.90;;;;;;5114118;28;20191;-77
2023/12/03 02:13:39;;;;;;;1.90;1.80;;;0.80;99.90;;;;;;5113523;28;20168;-81
2023/12/03 02:16:06;;;;;;;1.70;1.67;;;0.80;99.90;;;;;;5095727;28;20195;-80
2023/12/03 02:18:35;;;;;;;1.90;1.80;;;0.80;99.90;;;;;;5113572;28;20176;-81
2023/12/03 02:21:01;;;;;;;1.93;1.83;;;0.80;99.90;;;;;;5114049;28;20175;-82
2023/12/03 02:23:28;;;;;;;1.90;1.80;;;0.80;99.90;;;;;;5113796;28;20171;-80
2023/12/03 02:25:53;;;;;;;1.40;1.40;;;0.80;99.90;;;;;;5114057;28;20186;-78
2023/12/03 02:28:19;;;;;;;1.90;1.80;;;0.80;99.90;;;;;;5113638;28;20168;-78
2023/12/03 02:30:45;;;;;;;1.90;1.80;;;0.80;99.90;;;;;;5114562;28;20609;-76
2023/12/03 02:33:11;;;;;;;1.97;1.87;;;0.80;99.90;;;;;;5119836;28;20522;-79
2023/12/03 02:35:37;;;;;;;1.90;1.80;;;0.80;99.90;;;;;;5116290;28;20171;-79
2023/12/03 02:38:02;;;;;;;1.90;1.80;;;0.80;99.90;;;;;;5112938;28;20168;-78
2023/12/03 02:40:34;;;;;;;1.73;1.63;;;0.70;99.90;;;;;;5112000;28;20640;-79
2023/12/03 02:43:00;;;;;;;2.10;2.00;;;0.70;99.90;;;;;;5113597;28;20160;-77
2023/12/03 02:45:26;;;;;;;2.13;2.03;;;0.60;99.90;;;;;;5118886;28;20241;-78
2023/12/03 02:47:52;;;;;;;2.03;1.93;;;0.60;99.90;;;;;;5126156;28;20179;-80
2023/12/03 02:50:17;;;;;;;2.00;1.90;;;0.70;99.90;;;;;;5119861;28;20214;-78
2023/12/03 02:52:43;;;;;;;1.60;1.60;;;0.70;99.90;;;;;;5118192;28;20675;-79
2023/12/03 02:55:09;;;;;;;2.17;1.80;;;0.70;99.90;;;;;;5117259;28;20184;-80
2023/12/03 02:57:35;;;;;;;1.90;1.80;;;0.60;99.90;;;;;;5117155;28;20209;-77
2023/12/03 03:00:06;;;;;;;1.67;1.67;;;0.60;99.80;;;;;;5118423;28;20167;-77
2023/12/03 03:02:36;;;;;;;1.93;1.83;;;0.60;99.70;;;;;;5119796;28;20155;-80
2023/12/03 03:05:03;;;;;;;1.80;1.70;;;0.60;99.90;;;;;;5128115;28;20200;-78
2023/12/03 03:07:29;;;;;;;2.07;1.97;;;0.60;99.90;;;;;;5132009;28;20210;-79
2023/12/03 03:09:55;;;;;;;2.03;1.80;;;0.50;99.80;;;;;;5120104;28;20267;-79
2023/12/03 03:12:20;;;;;;;1.93;1.83;;;0.50;99.70;;;;;;5117408;28;20219;-79
2023/12/03 03:14:46;;;;;;;1.90;1.67;;;0.40;99.60;;;;;;5117217;28;20185;-78
2023/12/03 03:17:12;;;;;;;1.87;1.77;;;0.50;99.90;;;;;;5117932;28;20177;-79
2023/12/03 03:19:41;;;;;;;2.20;2.10;;;0.50;99.90;;;;;;5118617;28;20175;-81
2023/12/03 03:22:07;;;;;;;1.70;1.60;;;0.50;99.90;;;;;;5117418;28;20183;-80
2023/12/03 03:24:32;;;;;;;1.97;1.87;;;0.50;99.90;;;;;;5117427;28;20651;-80
2023/12/03 03:26:58;;;;;;;1.70;1.60;;;0.50;99.90;;;;;;5117515;28;20163;-79
2023/12/03 03:29:25;;;;;;;1.93;1.83;;;0.50;99.90;;;;;;5098600;28;20231;-80
2023/12/03 03:31:51;;;;;;;1.97;1.87;;;0.50;99.90;;;;;;5117421;28;20170;-79
2023/12/03 03:34:16;;;;;;;1.70;1.70;;;0.40;99.90;;;;;;5117728;28;20254;-80
2023/12/03 03:36:42;;;;;;;1.90;1.80;;;0.40;99.90;;;;;;5118232;28;20275;-78
2023/12/03 03:39:08;;;;;;;1.93;1.83;;;0.40;99.90;;;;;;5118418;28;20615;-79
2023/12/03 03:41:33;;;;;;;1.70;1.70;;;0.60;99.90;;;;;;5116975;28;20179;-79
2023/12/03 03:43:59;;;;;;;2.00;1.90;;;0.50;99.90;;;;;;5117699;28;20266;-80
2023/12/03 03:46:25;;;;;;;1.90;1.80;;;0.50;99.90;;;;;;5116952;28;20196;-79
2023/12/03 03:48:50;;;;;;;2.07;1.97;;;0.50;99.90;;;;;;5116361;28;20178;-79
2023/12/03 03:51:16;;;;;;;1.57;1.57;;;0.40;99.90;;;;;;5118080;28;20194;-80
2023/12/03 03:53:42;;;;;;;1.57;1.57;;;0.40;99.90;;;;;;5124916;28;20181;-81
2023/12/03 03:56:09;;;;;;;1.70;1.60;;;0.30;99.90;;;;;;5119125;28;20194;-79
2023/12/03 03:58:36;;;;;;;1.80;1.70;;;0.30;99.90;;;;;;5116513;28;20635;-80
2023/12/03 04:01:06;;;;;;;2.00;1.90;;;0.20;99.90;;;;;;5117045;28;20173;-81
2023/12/03 04:03:33;;;;;;;2.00;1.90;;;0.30;99.90;;;;;;5117689;28;20167;-77
2023/12/03 04:06:06;;;;;;;1.90;1.80;;;0.30;99.90;;;;;;5111619;28;20233;-81
2023/12/03 04:08:32;;;;;;;2.00;1.90;;;0.30;99.90;;;;;;5117032;28;20634;-80
2023/12/03 04:11:03;;;;;;;1.97;1.80;;;0.30;99.90;;;;;;5116148;28;20253;-79
2023/12/03 04:13:29;;;;;;;1.50;1.50;;;0.30;99.90;;;;;;5098676;28;20170;-79
2023/12/03 04:15:55;;;;;;;1.80;1.70;;;0.30;99.90;;;;;;5116357;28;20234;-79
2023/12/03 04:18:21;;;;;;;1.73;1.70;;;0.20;99.90;;;;;;5120055;28;20263;-78
2023/12/03 04:20:47;;;;;;;2.10;2.00;;;0.30;99.90;;;;;;5073893;28;20220;-80
2023/12/03 04:23:13;;;;;;;1.93;1.83;;;0.30;99.90;;;;;;5081708;28;20201;-81
2023/12/03 04:25:39;;;;;;;1.83;1.73;;;0.30;99.90;;;;;;5078942;28;20181;-79
2023/12/03 04:28:05;;;;;;;2.17;2.07;;;0.20;99.90;;;;;;5075303;28;20180;-81
2023/12/03 04:30:31;;;;;;;1.70;1.70;;;0.20;99.90;;;;;;5077958;28;20215;-80
2023/12/03 04:32:57;;;;;;;1.93;1.83;;;0.10;99.90;;;;;;5081485;28;20229;-78
2023/12/03 04:35:23;;;;;;;1.80;1.70;;;0.10;99.90;;;;;;5094014;28;20207;-78
2023/12/03 04:37:48;;;;;;;1.93;1.87;;;0.00;99.90;;;;;;5078568;28;20173;-76
2023/12/03 04:40:15;;;;;;;3.03;2.03;;;0.00;99.90;;;;;;5075939;28;20715;-77
2023/12/03 04:42:41;;;;;;;1.83;1.73;;;-0.10;99.70;;;;;;5075827;28;20176;-77
2023/12/03 04:45:07;;;;;;;1.77;1.63;;;-0.10;99.90;;;;;;5080733;28;20624;-78
2023/12/03 04:47:33;;;;;;;1.77;1.67;;;-0.10;99.70;;;;;;5089128;28;20179;-79
2023/12/03 04:49:58;;;;;;;1.63;1.60;;;-0.20;99.90;;;;;;5090551;28;20209;-78
2023/12/03 04:52:24;;;;;;;1.60;1.60;;;-0.20;99.90;;;;;;5090342;28;20243;-81
2023/12/03 04:54:50;;;;;;;2.20;2.10;;;-0.20;99.90;;;;;;5082007;28;20185;-80
2023/12/03 04:57:16;;;;;;;2.10;2.00;;;-0.20;99.90;;;;;;5075999;28;20185;-80
2023/12/03 04:59:41;;;;;;;2.10;2.00;;;-0.40;99.90;;;;;;5074843;28;20169;-81
2023/12/03 05:02:07;;;;;;;1.83;1.80;;;-0.40;99.90;;;;;;5074990;28;20189;-80
2023/12/03 05:04:33;;;;;;;1.80;1.70;;;-0.40;99.90;;;;;;5074557;28;20205;-79
2023/12/03 05:06:58;;;;;;;1.70;1.70;;;-0.50;99.90;;;;;;5074273;28;20714;-81
2023/12/03 05:09:24;;;;;;;4.33;2.10;;;-0.40;99.90;;;;;;5073365;28;20419;-80
2023/12/03 05:11:50;;;;;;;2.17;2.07;;;-0.50;99.90;;;;;;5073500;28;20188;-80
2023/12/03 05:14:15;;;;;;;2.10;2.00;;;-0.60;99.90;;;;;;5074293;28;20199;-79
2023/12/03 05:16:41;;;;;;;2.10;1.70;;;-0.60;99.90;;;;;;5074392;28;20185;-80
2023/12/03 05:19:07;;;;;;;1.80;1.70;;;-0.70;99.90;;;;;;5075005;28;20176;-81
2023/12/03 05:21:33;;;;;;;2.00;1.90;;;-0.60;99.90;;;;;;5074748;28;20188;-79
2023/12/03 05:23:58;;;;;;;2.00;1.90;;;-0.60;99.90;;;;;;5081188;28;20223;-76
2023/12/03 05:26:24;;;;;;;2.07;1.97;;;-0.60;99.90;;;;;;5079987;28;20209;-80
2023/12/03 05:28:50;;;;;;;1.63;1.63;;;-0.60;99.90;;;;;;5074051;28;20168;-78
2023/12/03 05:31:16;;;;;;;1.80;1.70;;;-0.60;99.90;;;;;;5074513;28;20519;-78
2023/12/03 05:33:42;;;;;;;2.23;2.13;;;-0.60;99.90;;;;;;5074484;28;20175;-80
2023/12/03 05:36:09;;;;;;;1.63;1.63;;;-0.60;99.90;;;;;;5074152;28;20620;-79
2023/12/03 05:38:37;;;;;;;2.27;2.17;;;-0.70;99.90;;;;;;5073927;28;20637;-81
2023/12/03 05:41:03;;;;;;;2.10;2.00;;;-0.70;99.90;;;;;;5074548;28;20738;-79
2023/12/03 05:43:28;;;;;;;2.00;1.90;;;-0.80;99.90;;;;;;5075535;28;20194;-81
2023/12/03 05:45:54;;;;;;;2.20;2.10;;;-0.90;99.90;;;;;;5073842;28;20816;-80
2023/12/03 05:48:21;;;;;;;2.70;2.50;;;-0.80;99.90;;;;;;5073967;28;20659;-80
2023/12/03 05:50:49;;;;;;;2.50;2.40;;;-0.90;99.90;;;;;;5056351;28;20211;-79
2023/12/03 05:53:15;;;;;;;2.73;2.53;;;-1.00;99.90;;;;;;5075165;28;20180;-80
2023/12/03 05:55:40;;;;;;;3.73;2.83;;;-1.00;99.90;;;;;;5074172;28;20190;-79
2023/12/03 05:58:06;;;;;;;2.10;2.00;;;-1.00;99.90;;;;;;5074317;28;20258;-80
2023/12/03 06:00:32;;;;;;;3.10;2.10;;;-1.00;99.90;;;;;;5057064;28;20197;-80
2023/12/03 06:02:59;;;;;;;2.50;2.30;;;-0.90;99.90;;;;;;5078612;28;20169;-78
2023/12/03 06:05:25;;;;;;;2.57;2.37;;;-0.90;99.90;;;;;;5083133;28;20184;-79
2023/12/03 06:07:50;;;;;;;3.40;2.50;;;-0.90;99.90;;;;;;5074852;28;20211;-77
2023/12/03 06:10:16;;;;;;;2.57;2.40;;;-0.90;99.90;;;;;;5092399;28;20203;-78
2023/12/03 06:12:42;;;;;;;2.47;2.37;;;-0.80;99.90;;;;;;5094363;28;20252;-78
2023/12/03 06:15:08;;;;;;;2.23;2.10;;;-0.80;99.90;;;;;;5112523;28;20305;-79
2023/12/03 06:17:34;;;;;;;2.63;2.43;;;-0.80;99.90;;;;;;5095716;28;20167;-80
2023/12/03 06:20:01;;;;;;;2.37;2.27;;;-0.80;99.90;;;;;;5094227;28;20581;-80
2023/12/03 06:22:27;;;;;;;2.67;2.53;;;-0.70;99.90;;;;;;5093955;28;20644;-78
2023/12/03 06:24:53;;;;;;;2.57;2.33;;;-0.70;99.90;;;;;;5093148;28;20185;-79
2023/12/03 06:27:18;;;;;;;3.40;3.10;;;-0.90;99.90;;;;;;5093975;28;20167;-78
2023/12/03 06:29:44;;;;;;;2.60;2.40;;;-0.90;99.90;;;;;;5093141;28;20302;-79
2023/12/03 06:32:10;;;;;;;2.50;2.30;;;-0.80;99.90;;;;;;5093597;28;20183;-79
2023/12/03 06:34:35;;;;;;;2.40;2.30;;;-0.90;99.90;;;;;;5093326;28;20242;-78
2023/12/03 06:37:04;;;;;;;2.63;2.50;;;-1.00;99.90;;;;;;5076979;28;20172;-79
2023/12/03 06:39:30;;;;;;;2.60;2.40;;;-1.00;99.90;;;;;;5095682;28;20263;-80
2023/12/03 06:41:55;;;;;;;3.43;2.50;;;-1.00;99.90;;;;;;5094605;28;20233;-78
2023/12/03 06:44:21;;;;;;;2.23;2.13;;;-1.00;99.90;;;;;;5103050;28;20209;-80
2023/12/03 06:46:47;;;;;;;2.43;2.23;;;-1.00;99.90;;;;;;5094206;28;20202;-78
2023/12/03 06:49:13;;;;;;;2.40;2.30;;;-0.90;99.90;;;;;;5093531;28;20759;-81
2023/12/03 06:51:38;;;;;;;2.70;2.50;;;-0.90;99.90;;;;;;5093299;28;20254;-78
2023/12/03 06:54:04;;;;;;;2.57;2.40;;;-0.90;99.90;;;;;;5093366;28;20253;-79
2023/12/03 06:56:30;;;;;;;2.10;2.00;;;-0.90;99.90;;;;;;5093977;28;20180;-78
2023/12/03 06:58:56;;;;;;;2.10;2.00;;;-0.90;99.90;;;;;;5094051;28;20190;-79
2023/12/03 07:01:21;;;;;;;2.60;2.47;;;-0.90;99.90;;;;;;5093563;28;20647;-78
2023/12/03 07:03:47;;;;;;;2.47;2.37;;;-0.90;99.90;;;;;;5094193;28;20164;-78
2023/12/03 07:06:13;;;;;;;3.00;2.80;;;-0.80;99.90;;;;;;5099116;28;20226;-78
2023/12/03 07:08:38;;;;;;;3.17;2.97;;;-0.80;99.90;;;;;;5107462;28;20168;-78
2023/12/03 07:11:05;;;;;;;3.10;2.80;;;-0.70;99.90;;;;;;5096714;28;20250;-81
2023/12/03 07:13:30;;;;;;;4.13;3.83;;;-0.70;99.90;;;;;;5075293;28;20177;-80
2023/12/03 07:15:57;;;;;;;3.60;3.40;;;-0.70;99.90;;;;;;5093290;28;20176;-80
2023/12/03 07:18:23;;;;;;;3.20;3.00;;;-0.70;99.90;;;;;;5075378;28;20180;-79
2023/12/03 07:20:49;;;;;;;3.43;3.23;;;-0.80;99.90;;;;;;5093127;28;20175;-80
2023/12/03 07:23:14;;;;;;;3.30;3.10;;;-0.80;99.90;;;;;;5093398;28;20177;-80
2023/12/03 07:25:40;;;;;;;3.10;2.90;;;-0.80;99.90;;;;;;5074865;28;20271;-78
2023/12/03 07:28:06;;;;;;;3.33;3.03;;;-0.80;99.90;;;;;;5093217;28;20175;-79
2023/12/03 07:30:32;;;;;;;3.10;2.90;;;-0.90;99.90;;;;;;5092718;28;20233;-78
2023/12/03 07:32:58;;;;;;;2.37;2.27;;;-0.90;99.90;;;;;;5092334;28;20176;-78
2023/12/03 07:35:24;;;;;;;3.07;2.87;;;-0.90;99.90;;;;;;5098834;28;20184;-79
2023/12/03 07:37:49;;;;;;;3.00;2.80;;;-0.90;99.90;;;;;;5096879;28;20176;-80
2023/12/03 07:40:15;;;;;;;3.50;3.00;;;-0.90;99.90;;;;;;5099400;28;20225;-79
2023/12/03 07:42:41;;;;;;;3.27;3.00;;;-0.80;99.90;;;;;;5100185;28;20232;-79
2023/12/03 07:45:07;;;;;;;2.50;2.40;;;-0.80;99.90;;;;;;5097421;28;20174;-79
2023/12/03 07:47:33;;;;;;;2.90;2.70;;;-0.90;99.90;;;;;;5097383;28;20176;-80
2023/12/03 07:50:00;;;;;;;3.13;2.90;;;-0.90;99.90;;;;;;5081257;28;20990;-77
2023/12/03 07:52:26;;;;;;;2.93;2.73;;;-0.90;99.90;;;;;;5102340;28;20188;-78
2023/12/03 07:54:52;;;;;;;3.67;3.17;;;-0.90;99.90;;;;;;5113843;28;20254;-76
2023/12/03 07:57:18;;;;;;;4.97;4.20;;;-0.80;99.90;;;;;;5100180;28;20214;-78
2023/12/03 07:59:44;;;;;;;4.63;3.60;;;-0.70;99.90;;;;;;5096436;28;20169;-78
2023/12/03 08:02:10;;;;;;;4.70;3.70;;;-0.70;99.90;;;;;;5084840;28;20248;-80
2023/12/03 08:04:35;;;;;;;4.07;3.60;;;-0.60;99.90;;;;;;5102223;28;20517;-80
2023/12/03 08:07:01;;;;;;;4.00;3.50;;;-0.70;99.90;;;;;;5096983;28;20227;-81
2023/12/03 08:09:27;;;;;;;3.50;3.20;;;-0.70;99.90;;;;;;5098518;28;20199;-80
2023/12/03 08:11:53;;;;;;;3.63;3.30;;;-0.60;99.90;;;;;;5098705;28;20179;-78
2023/12/03 08:14:19;;;;;;;3.63;3.33;;;-0.60;99.90;;;;;;5107925;28;20174;-77
2023/12/03 08:16:45;;;;;;;3.70;3.40;;;-0.60;99.90;;;;;;5096573;28;20195;-78
2023/12/03 08:19:11;;;;;;;3.50;3.20;;;-0.60;99.90;;;;;;5096615;28;20184;-80
2023/12/03 08:21:36;;;;;;;3.37;3.07;;;-0.50;99.90;;;;;;5096374;28;20176;-77
2023/12/03 08:24:03;;;;;;;3.10;2.90;;;-0.50;99.90;;;;;;5097754;28;20206;-78
2023/12/03 08:26:29;;;;;;;2.97;2.77;;;-0.40;99.90;;;;;;5078286;28;20176;-78
2023/12/03 08:28:54;;;;;;;3.10;2.90;;;-0.40;99.90;;;;;;5096105;28;20262;-78
2023/12/03 08:31:22;;;;;;;2.77;2.57;;;-0.30;99.90;;;;;;5096337;28;20267;-76
2023/12/03 08:33:48;;;;;;;3.00;2.80;;;-0.20;99.90;;;;;;5096670;28;20173;-80
2023/12/03 08:36:18;;;;;;;3.13;2.87;;;-0.20;99.90;;;;;;5098267;28;20185;-79
2023/12/03 08:38:45;;;;;;;2.80;2.60;;;-0.20;99.90;;;;;;5091237;28;20164;-77
2023/12/03 08:41:10;;;;;;;2.90;2.70;;;-0.30;99.90;;;;;;5110757;28;20627;-78
2023/12/03 08:43:36;;;;;;;3.17;2.73;;;-0.30;99.90;;;;;;5111941;28;20171;-78
2023/12/03 08:46:02;;;;;;;3.43;3.07;;;-0.30;99.90;;;;;;5104331;28;20179;-79
2023/12/03 08:48:28;;;;;;;3.97;2.93;;;-0.40;99.90;;;;;;5096037;28;20177;-78
2023/12/03 08:50:53;;;;;;;3.37;3.03;;;-0.40;99.90;;;;;;5095234;28;20203;-80
2023/12/03 08:53:19;;;;;;;2.93;2.73;;;-0.20;99.90;;;;;;5095219;28;20168;-81
2023/12/03 08:55:45;;;;;;;3.33;3.13;;;-0.20;99.90;;;;;;5076981;28;20195;-77
2023/12/03 08:58:10;;;;;;;3.20;2.90;;;-0.10;99.90;;;;;;5094828;28;20223;-79
2023/12/03 09:00:37;;;;;;;3.93;3.63;;;-0.20;99.90;;;;;;5095608;28;20183;-80
2023/12/03 09:03:03;;;;;;;6.23;3.37;;;-0.10;99.90;;;;;;5095227;28;20171;-80
2023/12/03 09:05:29;;;;;;;3.27;2.97;;;-0.10;99.90;;;;;;5095248;28;20188;-79
2023/12/03 09:07:55;;;;;;;4.33;3.40;;;0.00;99.90;;;;;;5095608;28;20228;-81
2023/12/03 09:10:21;;;;;;;5.27;3.93;;;0.00;99.90;;;;;;5094655;28;20211;-80
2023/12/03 09:12:46;;;;;;;4.07;3.37;;;0.00;99.90;;;;;;5094676;28;20263;-80
2023/12/03 09:15:12;;;;;;;4.20;3.80;;;0.10;99.90;;;;;;5095137;28;20208;-77
2023/12/03 09:17:38;;;;;;;4.23;3.87;;;0.20;99.90;;;;;;5094699;28;20173;-78
2023/12/03 09:20:05;;;;;;;4.60;3.77;;;0.30;99.90;;;;;;5094982;28;20628;-78
2023/12/03 09:22:31;;;;;;;3.10;2.90;;;0.30;99.90;;;;;;5100889;28;20174;-79
2023/12/03 09:24:57;;;;;;;4.27;3.67;;;0.30;99.90;;;;;;5095449;28;20264;-79
2023/12/03 09:27:22;;;;;;;3.23;2.97;;;0.30;99.90;;;;;;5093764;28;20272;-79
2023/12/03 09:29:48;;;;;;;3.47;3.17;;;0.30;99.90;;;;;;5077246;28;20668;-79
2023/12/03 09:32:14;;;;;;;2.87;2.67;;;0.40;99.90;;;;;;5099601;28;20175;-77
2023/12/03 09:34:40;;;;;;;3.00;2.70;;;0.30;99.90;;;;;;5109832;28;20185;-77
2023/12/03 09:37:05;;;;;;;2.77;2.57;;;0.40;99.90;;;;;;5109485;28;20177;-79
2023/12/03 09:39:31;;;;;;;2.90;2.70;;;0.40;99.90;;;;;;5109303;28;20197;-77
2023/12/03 09:42:01;;;;;;;3.07;2.87;;;0.40;99.90;;;;;;5109393;28;20205;-78
2023/12/03 09:44:46;;;;;;;2.50;2.40;;;0.40;99.90;;;;;;5096409;28;20174;-76
2023/12/03 09:47:14;;;;;;;2.67;2.47;;;0.50;99.90;;;;;;5102107;28;20165;-79
2023/12/03 09:49:45;;;;;;;2.80;2.60;;;0.50;99.60;;;;;;5081415;28;20214;-78
2023/12/03 09:52:12;;;;;;;2.60;2.40;;;0.60;99.50;;;;;;5076455;28;20234;-76
2023/12/03 09:54:38;;;;;;;2.43;2.33;;;0.60;99.40;;;;;;5093834;28;20173;-77
2023/12/03 09:57:07;;;;;;;3.10;2.90;;;0.70;99.60;;;;;;5094289;28;20173;-79
2023/12/03 09:59:34;;;;;;;3.03;2.83;;;0.70;99.50;;;;;;5094206;28;20734;-76
2023/12/03 10:02:01;;;;;;;3.97;3.10;;;0.70;99.60;;;;;;5093892;28;20184;-76
2023/12/03 10:04:27;;;;;;;3.03;2.73;;;0.80;99.90;;;;;;5094691;28;20247;-76
2023/12/03 10:06:56;;;;;;;2.50;2.30;;;0.80;99.50;;;;;;5096923;28;20232;-77
2023/12/03 10:09:23;;;;;;;3.53;3.23;;;0.90;99.90;;;;;;5103696;28;20551;-77
2023/12/03 10:11:55;;;;;;;2.77;2.57;;;1.00;99.50;;;;;;5096126;28;20208;-80
2023/12/03 10:14:21;;;;;;;4.43;2.93;;;1.00;98.50;;;;;;5094055;28;20252;-79
2023/12/03 10:16:52;;;;;;;5.17;3.83;;;1.20;99.90;;;;;;5094091;28;20590;-77
2023/12/03 10:19:28;;;;;;;3.67;3.33;;;1.30;99.90;;;;;;5094022;28;20624;-78
2023/12/03 10:21:55;;;;;;;3.37;2.97;;;1.40;99.90;;;;;;5075738;28;20174;-79
2023/12/03 10:24:21;;;;;;;3.03;2.83;;;1.40;99.90;;;;;;5093835;28;20172;-79
2023/12/03 10:26:55;;;;;;;2.70;2.50;;;1.40;98.60;;;;;;5094058;28;20517;-77
2023/12/03 10:29:23;;;;;;;11.50;6.73;;;1.50;99.30;;;;;;5093977;28;20189;-77
2023/12/03 10:31:50;;;;;;;2.80;2.60;;;1.50;99.10;;;;;;5093881;28;20176;-76
2023/12/03 10:34:24;;;;;;;2.73;2.53;;;1.40;98.80;;;;;;5093956;28;20187;-76
2023/12/03 10:36:50;;;;;;;3.27;2.20;;;1.40;99.90;;;;;;5094424;28;20202;-78
2023/12/03 10:39:19;;;;;;;3.20;2.90;;;1.50;99.90;;;;;;5094060;28;20167;-77
2023/12/03 10:41:46;;;;;;;2.77;2.67;;;1.50;99.90;;;;;;5099477;28;20727;-78
2023/12/03 10:44:19;;;;;;;2.13;2.03;;;1.50;96.70;;;;;;5078153;28;20638;-77
2023/12/03 10:46:45;;;;;;;2.63;2.43;;;1.30;95.50;;;;;;5095425;28;20169;-79
2023/12/03 10:49:12;;;;;;;2.37;2.27;;;1.40;96.40;;;;;;5093487;28;20531;-79
2023/12/03 10:51:42;;;;;;;2.17;2.07;;;1.40;96.20;;;;;;5075507;28;20177;-76
2023/12/03 10:54:09;;;;;;;2.53;2.30;;;1.50;96.20;;;;;;5093817;28;20161;-78
2023/12/03 10:56:35;;;;;;;2.30;2.20;;;1.50;95.20;;;;;;5093941;28;20188;-80
2023/12/03 10:59:13;;;;;;;2.00;1.90;;;1.40;95.50;;;;;;5076664;28;20185;-77
2023/12/03 11:01:49;;;;;;;2.27;2.17;;;1.50;96.10;;;;;;5094519;28;20162;-77
2023/12/03 11:04:36;;;;;;;2.27;2.17;;;1.50;94.90;;;;;;5095077;28;20208;-78
2023/12/03 11:07:07;;;;;;;2.17;2.07;;;1.50;93.90;;;;;;5094617;28;20576;-79
2023/12/03 11:09:39;;;;;;;2.10;2.00;;;1.50;93.40;;;;;;5093717;28;20216;-80
2023/12/03 11:12:07;;;;;;;2.13;2.00;;;1.60;93.60;;;;;;5097313;28;20157;-77
2023/12/03 11:14:34;;;;;;;2.00;1.90;;;1.60;93.30;;;;;;5098263;28;20163;-76
2023/12/03 11:17:06;;;;;;;2.10;2.00;;;1.60;92.50;;;;;;5108722;28;20193;-77
2023/12/03 11:19:33;;;;;;;2.23;2.13;;;1.60;94.60;;;;;;5103990;28;20227;-78
2023/12/03 11:22:20;;;;;;;2.83;2.63;;;1.60;94.70;;;;;;5097876;28;20177;-76
2023/12/03 11:24:49;;;;;;;4.03;3.63;;;1.60;96.70;;;;;;5079117;28;20651;-77
2023/12/03 11:27:15;;;;;;;4.10;3.70;;;1.70;98.80;;;;;;5098158;28;20167;-77
2023/12/03 11:29:49;;;;;;;4.30;4.00;;;1.60;99.80;;;;;;5082994;28;20209;-77
2023/12/03 11:32:16;;;;;;;3.50;3.20;;;1.60;99.90;;;;;;5097456;28;20766;-78
2023/12/03 11:34:43;;;;;;;2.77;2.57;;;1.60;98.80;;;;;;5097329;28;20529;-80
2023/12/03 11:37:09;;;;;;;2.90;2.70;;;1.70;97.40;;;;;;5097274;28;20266;-78
2023/12/03 11:39:46;;;;;;;3.47;2.90;;;1.70;96.80;;;;;;5097554;28;20256;-80
2023/12/03 11:42:13;;;;;;;3.17;2.90;;;1.70;96.10;;;;;;5098583;28;20171;-79
2023/12/03 11:44:39;;;;;;;3.80;2.70;;;1.60;96.50;;;;;;5100573;28;20179;-79
2023/12/03 11:47:08;;;;;;;2.80;2.60;;;1.60;97.20;;;;;;5097549;28;20181;-78
2023/12/03 11:49:36;;;;;;;3.57;2.50;;;1.70;97.70;;;;;;5096776;28;20270;-80
2023/12/03 11:52:03;;;;;;;2.67;2.47;;;1.70;97.50;;;;;;5097618;28;20174;-79
2023/12/03 11:54:37;;;;;;;2.70;2.50;;;1.80;96.50;;;;;;5102817;28;20169;-78
2023/12/03 11:57:02;;;;;;;2.97;2.77;;;1.80;96.10;;;;;;5099221;28;20216;-79
2023/12/03 11:59:28;;;;;;;2.90;2.70;;;1.80;95.40;;;;;;5096833;28;20240;-78
2023/12/03 12:01:54;;;;;;;3.13;2.80;;;1.70;95.50;;;;;;5097855;28;20175;-79
2023/12/03 12:04:23;;;;;;;3.87;2.60;;;1.70;95.60;;;;;;5107904;28;20185;-82
2023/12/03 12:06:53;;;;;;;2.63;2.53;;;1.80;96.50;;;;;;5099560;28;20257;-78
2023/12/03 12:09:23;;;;;;;2.67;2.47;;;1.80;97.00;;;;;;5078687;28;20223;-80
2023/12/03 12:11:50;;;;;;;2.50;2.40;;;1.80;96.60;;;;;;5097007;28;20212;-78
2023/12/03 12:14:17;;;;;;;2.80;2.60;;;1.80;95.70;;;;;;5097471;28;20178;-78
2023/12/03 12:16:44;;;;;;;4.30;3.40;;;1.90;96.10;;;;;;5098401;28;20182;-78
2023/12/03 12:19:09;;;;;;;4.57;4.17;;;1.90;96.70;;;;;;5110361;28;20608;-78
2023/12/03 12:21:53;;;;;;;5.23;4.20;;;2.00;97.40;;;;;;5108203;28;20201;-77
2023/12/03 12:24:19;;;;;;;12.23;5.40;;;2.10;98.50;;;;;;5098340;28;20174;-77
2023/12/03 12:26:46;;;;;;;9.97;6.90;;;2.10;99.90;;;;;;5096884;28;20646;-77
2023/12/03 12:29:12;;;;;;;9.60;7.53;;;2.20;99.90;;;;;;5108103;28;20170;-77
2023/12/03 12:31:39;;;;;;;11.93;8.63;;;2.20;99.90;;;;;;5116625;28;20198;-77
2023/12/03 12:34:05;;;;;;;17.73;10.70;;;2.20;99.90;;;;;;5116357;28;20206;-78
2023/12/03 12:36:30;;;;;;;18.87;10.13;;;2.20;99.90;;;;;;5116454;28;20231;-77
2023/12/03 12:38:56;;;;;;;13.83;9.53;;;2.20;99.90;;;;;;5117181;28;20567;-78
2023/12/03 12:41:22;;;;;;;17.43;9.40;;;2.10;99.90;;;;;;5133262;28;20165;-77
2023/12/03 12:43:54;;;;;;;17.03;10.17;;;2.10;99.90;;;;;;5122164;28;20173;-76
2023/12/03 12:46:20;;;;;;;25.80;13.50;;;2.10;99.90;;;;;;5120731;28;20184;-77
2023/12/03 12:48:45;;;;;;;18.70;11.53;;;2.10;99.90;;;;;;5100161;28;20702;-78
2023/12/03 12:51:22;;;;;;;34.80;18.50;;;2.10;99.90;;;;;;5118182;28;20211;-78